Strona główna
METAR-TAF:

METAR-TAF

Lotnisko :

Port lotniczy Pori

Pori, Finlandia

Szerokość geograficzna: 61-28N, Długość geograficzna: 021-48E, wysokość: 13 m

Aktualna obserwacja pogody

Raport powstał 25 minut temu, godzina 11:20 UTC
Wiatr 6 kt od zachód, zmienny między południowy zachód i zachodnio-północny zachód
Temperatura 5°C
Wilgotność 70%
Ciśnienie 996 hPa
Widzialność 10 km lub więcej
Przerywane chmury na wysokości 1500 ft

METAR: EFPO 191120Z AUTO 26006KT 220V290 9999 BKN015 05/00 Q0996

czas: 13:45 (11:45 UTC)

Prognoza

Raport powstał 3 godziny i 18 minut temu, godzina 08:27 UTC
Prognoza ważna od 19 godzina 09 UTC do 19 godzina 18 UTC
Wiatr 5 kt od południowy zachód
Widzialność 10 km lub więcej
Brak chmur poniżej 1500 m i brak chmur cumulonimbus
Prawdopodobieństwo 30%
od 19 godzina 09 UTC do 19 godzina 15 UTC
Przerywane chmury na wysokości 900 ft

TAF: EFPO 190827Z 1909/1918 23005KT CAVOK PROB30 1909/1915 BKN009

Obserwacja i prognoza pogody dla ponad 4000 lotnisk (raport METAR i TAF).

Dostępne stacje oznaczono żółtymi i czerwonymi punktami na mapie.

Najedź kursorem aby zobaczyć nazwę stacji.

Kliknij aby zobaczyć obserwacje i prognozy pogody.

Aby zmienić mapę: kliknij na zielony przycisk z czarnym krzyżykiem, aby powiększyć; na zielony przycisk z myślnikiem, aby pomniejszyć; na zielone strzałki, aby przejść do map sąsiednich.


METAR-TAF: